This is the latest recevied weather packets stored in our database for station/object F4FSZ-11. If no packets are shown the sender has not sent any weather packets the latest 10 day(s).
| Time | Temp. | Humidity | Pressure | Rain* | Wind** | Luminosity | Snow |
|---|---|---|---|---|---|---|---|
| 1777690112 | 12.22° C | 81% | 1015.5 hPa | - | - | - | - |
| 1777689212 | 12.22° C | 77% | 1015.6 hPa | - | - | - | - |
| 1777688311 | 11.67° C | 73% | 1015.6 hPa | - | - | - | - |
| 1777687412 | 11.67° C | 70% | 1015.4 hPa | - | - | - | - |
| 1777686512 | 10° C | 84% | 1015.5 hPa | - | - | - | - |
| 1777685612 | 9.44° C | 84% | 1015.5 hPa | - | - | - | - |
| 1777684711 | 10° C | 85% | 1015.5 hPa | - | - | - | - |
| 1777683811 | 10° C | 87% | 1015.4 hPa | - | - | - | - |
| 1777682911 | 10° C | 89% | 1015.3 hPa | - | - | - | - |
| 1777682011 | 10° C | 85% | 1015.4 hPa | - | - | - | - |
| 1777681111 | 10° C | 84% | 1015.6 hPa | - | - | - | - |
| 1777680211 | 10° C | 83% | 1015.7 hPa | - | - | - | - |
| 1777679311 | 10° C | 84% | 1015.9 hPa | - | - | - | - |
| 1777678411 | 10.56° C | 85% | 1015.8 hPa | - | - | - | - |
| 1777677511 | 10.56° C | 85% | 1015.8 hPa | - | - | - | - |
| 1777676611 | 10.56° C | 85% | 1015.8 hPa | - | - | - | - |
| 1777675711 | 10.56° C | 86% | 1015.9 hPa | - | - | - | - |
| 1777674811 | 11.11° C | 86% | 1016 hPa | - | - | - | - |
| 1777673911 | 11.11° C | 85% | 1016 hPa | - | - | - | - |
| 1777673011 | 11.67° C | 83% | 1015.9 hPa | - | - | - | - |
| 1777672111 | 11.67° C | 85% | 1016 hPa | - | - | - | - |
| 1777671211 | 11.67° C | 86% | 1016 hPa | - | - | - | - |
| 1777670311 | 12.22° C | 83% | 1015.7 hPa | - | - | - | - |
| 1777669411 | 12.22° C | 81% | 1015.8 hPa | - | - | - | - |
| 1777668510 | 12.22° C | 83% | 1015.9 hPa | - | - | - | - |
* Rain since midnight (hover to see other rain measurements)
** Current wind speed in m/s (hover to see current wind gust speed)